createdAt,value
2022-10-03T00:00:36.382Z,8.00
2022-10-03T00:03:32.920Z,8.52
2022-10-03T00:06:25.400Z,7.90
2022-10-03T00:09:32.964Z,8.68
2022-10-03T00:12:47.365Z,9.73
2022-10-03T00:15:39.944Z,8.95
2022-10-03T00:18:34.486Z,9.57
2022-10-03T00:22:01.025Z,11.07
2022-10-03T00:24:58.816Z,9.95
2022-10-03T00:28:04.167Z,10.15
2022-10-03T00:31:06.945Z,8.40
2022-10-03T00:33:57.316Z,10.15
2022-10-03T00:36:34.592Z,12.07
2022-10-03T00:39:17.855Z,13.02
2022-10-03T00:41:53.926Z,14.23
2022-10-03T00:44:43.758Z,11.80
2022-10-03T00:47:45.038Z,11.30
2022-10-03T00:50:30.582Z,12.40
2022-10-03T00:53:22.167Z,14.23
2022-10-03T00:56:35.527Z,11.30
2022-10-03T00:59:34.029Z,11.63
2022-10-03T01:02:42.149Z,12.90
2022-10-03T01:05:53.478Z,12.32
2022-10-03T01:08:41.459Z,13.23
2022-10-03T01:11:08.316Z,14.55
2022-10-03T01:14:13.016Z,11.73
2022-10-03T01:17:05.494Z,11.15
2022-10-03T01:20:07.371Z,13.32
2022-10-03T01:26:19.629Z,10.85
2022-10-03T01:30:01.528Z,10.57
2022-10-03T01:32:36.493Z,12.13
2022-10-03T01:35:33.972Z,9.20
2022-10-03T01:38:22.793Z,9.70
2022-10-03T01:41:29.397Z,9.98
2022-10-03T01:44:16.358Z,9.93
2022-10-03T01:49:51.986Z,7.63
2022-10-03T01:52:26.075Z,8.23
2022-10-03T01:55:04.345Z,9.07
2022-10-03T01:57:56.051Z,8.02
2022-10-03T02:00:33.337Z,7.38
2022-10-03T02:03:48.172Z,8.32
2022-10-03T02:06:43.964Z,8.80
2022-10-03T02:09:57.277Z,7.80
2022-10-03T02:12:37.006Z,7.47
2022-10-03T02:15:33.435Z,8.32
2022-10-03T02:18:21.804Z,7.28
2022-10-03T02:21:01.286Z,7.43
2022-10-03T02:23:34.050Z,7.07
2022-10-03T02:26:28.272Z,7.72
2022-10-03T02:29:19.843Z,6.82
2022-10-03T02:32:04.054Z,7.05
2022-10-03T02:35:08.546Z,8.40
2022-10-03T02:38:29.748Z,7.47
2022-10-03T02:41:25.134Z,9.15
2022-10-03T02:44:25.499Z,7.85
2022-10-03T02:47:23.120Z,7.63
2022-10-03T02:50:08.698Z,9.52
2022-10-03T02:53:13.019Z,8.05
2022-10-03T02:55:58.688Z,9.07
2022-10-03T02:59:02.561Z,7.60
2022-10-03T03:01:38.143Z,8.02
2022-10-03T03:04:40.053Z,7.70
2022-10-03T03:07:32.428Z,7.25
2022-10-03T03:10:32.646Z,7.38
2022-10-03T03:13:27.528Z,7.47
2022-10-03T03:16:37.328Z,7.47
2022-10-03T03:19:28.166Z,7.63
2022-10-03T03:22:38.015Z,6.53
2022-10-03T03:25:31.008Z,8.32
2022-10-03T03:28:21.308Z,7.10
2022-10-03T03:31:01.696Z,6.53
2022-10-03T03:33:56.429Z,6.65
2022-10-03T03:36:27.220Z,9.27
2022-10-03T03:39:02.626Z,8.57
2022-10-03T03:42:03.852Z,8.43
2022-10-03T03:45:08.106Z,7.20
2022-10-03T03:47:53.845Z,9.43
2022-10-03T03:51:15.073Z,8.90
2022-10-03T03:54:06.768Z,8.00
2022-10-03T03:56:42.673Z,7.03
2022-10-03T03:59:29.756Z,7.72
2022-10-03T04:02:09.403Z,7.28
2022-10-03T04:05:18.063Z,6.95
2022-10-03T04:08:16.577Z,7.82
2022-10-03T04:11:27.518Z,7.90
2022-10-03T04:14:55.828Z,9.10
2022-10-03T04:18:15.543Z,8.02
2022-10-03T04:21:24.233Z,7.67
2022-10-03T04:24:36.161Z,9.77
2022-10-03T04:27:24.715Z,8.63
2022-10-03T04:30:08.795Z,9.13
2022-10-03T04:33:07.211Z,8.15
2022-10-03T04:36:46.012Z,8.23
2022-10-03T04:40:19.562Z,9.60
2022-10-03T04:46:58.693Z,8.03
2022-10-03T04:49:56.421Z,9.95
2022-10-03T04:52:42.180Z,8.93
2022-10-03T04:55:28.591Z,7.60
2022-10-03T04:58:25.838Z,7.78
2022-10-03T05:01:38.799Z,8.55
2022-10-03T05:08:04.108Z,8.77
2022-10-03T05:10:50.961Z,8.02
2022-10-03T05:13:41.274Z,8.15
2022-10-03T05:16:55.661Z,7.80
2022-10-03T05:20:02.992Z,6.97
2022-10-03T05:22:52.075Z,7.80
2022-10-03T05:25:41.760Z,9.85
2022-10-03T05:28:30.351Z,11.95
2022-10-03T05:31:20.382Z,8.43
2022-10-03T05:34:13.341Z,8.82
2022-10-03T05:37:09.195Z,8.63
2022-10-03T05:40:02.336Z,9.80
2022-10-03T05:42:46.663Z,10.52
2022-10-03T05:45:26.461Z,9.75
2022-10-03T05:48:23.893Z,9.82
2022-10-03T05:51:20.953Z,9.38
2022-10-03T05:54:02.449Z,8.68
2022-10-03T05:57:08.137Z,6.85
2022-10-03T05:59:52.074Z,6.38
2022-10-03T06:02:49.606Z,5.80
2022-10-03T06:05:59.458Z,6.38
2022-10-03T06:08:54.891Z,6.78
2022-10-03T06:11:58.010Z,7.18
2022-10-03T06:14:35.037Z,6.95
2022-10-03T06:17:31.724Z,6.07
2022-10-03T06:20:27.899Z,6.35
2022-10-03T06:23:36.857Z,6.07
2022-10-03T06:26:22.505Z,6.55
2022-10-03T06:29:27.853Z,6.50
2022-10-03T06:32:32.441Z,6.97
2022-10-03T06:35:29.286Z,7.38
2022-10-03T06:38:26.466Z,8.32
2022-10-03T06:41:30.971Z,9.88
2022-10-03T06:44:40.739Z,7.05
2022-10-03T06:47:34.649Z,8.45
2022-10-03T06:50:30.329Z,7.70
2022-10-03T06:53:08.512Z,7.70
2022-10-03T06:56:05.354Z,8.73
2022-10-03T06:59:08.319Z,9.38
2022-10-03T07:02:00.270Z,11.73
2022-10-03T07:05:10.512Z,9.35
2022-10-03T07:08:12.090Z,8.98
2022-10-03T07:11:05.763Z,10.55
2022-10-03T07:13:52.619Z,9.80
2022-10-03T07:16:51.248Z,9.30
2022-10-03T07:19:53.180Z,9.15
2022-10-03T07:22:51.664Z,7.40
2022-10-03T07:25:47.038Z,10.43
2022-10-03T07:28:44.495Z,7.22
2022-10-03T07:31:17.576Z,7.55
2022-10-03T07:34:12.222Z,9.32
2022-10-03T07:37:09.264Z,9.93
2022-10-03T07:39:59.953Z,9.57
2022-10-03T07:43:05.731Z,7.80
2022-10-03T07:45:35.655Z,8.00
2022-10-03T07:48:17.415Z,7.30
2022-10-03T07:51:02.062Z,8.13
2022-10-03T07:53:50.723Z,8.48
2022-10-03T07:56:32.537Z,8.80
2022-10-03T07:59:27.023Z,7.57
2022-10-03T08:02:28.099Z,7.90
2022-10-03T08:05:36.373Z,10.75
2022-10-03T08:08:50.744Z,9.05
2022-10-03T08:11:52.121Z,7.97
2022-10-03T08:14:32.044Z,6.80
2022-10-03T08:17:23.516Z,7.55
2022-10-03T08:20:29.674Z,7.60
2022-10-03T08:23:11.695Z,7.15
2022-10-03T08:25:51.575Z,8.20
2022-10-03T08:28:38.597Z,9.07
2022-10-03T08:31:28.060Z,8.23
2022-10-03T08:34:29.152Z,9.05
2022-10-03T08:37:13.572Z,9.00
2022-10-03T08:40:07.796Z,8.95
2022-10-03T08:43:04.096Z,10.15
2022-10-03T08:46:08.688Z,8.18
2022-10-03T08:49:03.926Z,7.63
2022-10-03T08:52:08.066Z,7.80
2022-10-03T08:54:37.804Z,8.70
2022-10-03T08:57:17.821Z,9.55
2022-10-03T08:59:50.375Z,7.32
2022-10-03T09:03:02.134Z,9.23
2022-10-03T09:06:09.877Z,8.27
2022-10-03T09:08:51.342Z,7.45
2022-10-03T09:11:24.128Z,7.18
2022-10-03T09:14:33.905Z,8.65
2022-10-03T09:17:40.540Z,7.97
2022-10-03T09:20:51.668Z,7.03
2022-10-03T09:23:31.978Z,7.30
2022-10-03T09:28:49.485Z,5.85
2022-10-03T09:31:39.452Z,5.60
2022-10-03T09:34:45.619Z,5.97
2022-10-03T09:37:41.392Z,6.70
2022-10-03T09:40:42.473Z,7.32
2022-10-03T09:43:27.614Z,5.80
2022-10-03T09:46:28.809Z,5.40
2022-10-03T09:49:02.541Z,6.85
2022-10-03T09:51:48.355Z,5.50
2022-10-03T09:54:29.848Z,4.95
2022-10-03T09:57:22.902Z,4.95
2022-10-03T10:00:04.475Z,4.97
2022-10-03T10:02:59.165Z,5.28
2022-10-03T10:05:44.584Z,4.85
2022-10-03T10:08:41.721Z,5.05
2022-10-03T10:11:22.752Z,4.68
2022-10-03T10:14:11.025Z,5.00
2022-10-03T10:16:38.445Z,5.00
2022-10-03T10:19:20.974Z,4.05
2022-10-03T10:21:50.578Z,3.72
2022-10-03T10:24:51.445Z,3.92
2022-10-03T10:27:35.165Z,3.63
2022-10-03T10:30:29.294Z,3.47
2022-10-03T10:33:35.879Z,4.00
2022-10-03T10:36:36.023Z,4.10
2022-10-03T10:39:34.786Z,3.70
2022-10-03T10:42:44.667Z,3.97
2022-10-03T10:45:24.495Z,3.90
2022-10-03T10:48:28.749Z,4.32
2022-10-03T10:51:33.221Z,4.28
2022-10-03T10:54:28.023Z,3.22
2022-10-03T10:57:35.386Z,3.70
2022-10-03T11:00:36.771Z,4.20
2022-10-03T11:03:51.237Z,4.18
2022-10-03T11:06:29.888Z,4.05
2022-10-03T11:09:24.873Z,4.07
2022-10-03T11:12:23.770Z,3.47
2022-10-03T11:15:15.494Z,4.07
2022-10-03T11:17:53.838Z,3.88
2022-10-03T11:20:42.477Z,3.58
2022-10-03T11:23:35.715Z,3.47
2022-10-03T11:26:33.275Z,3.90
2022-10-03T11:29:24.632Z,3.75
2022-10-03T11:32:28.344Z,4.13
2022-10-03T11:35:42.836Z,3.78
2022-10-03T11:38:30.237Z,4.85
2022-10-03T11:41:21.513Z,4.53
2022-10-03T11:44:16.053Z,4.22
2022-10-03T11:47:05.965Z,4.50
2022-10-03T11:49:52.958Z,4.25
2022-10-03T11:52:34.132Z,4.93
2022-10-03T11:55:35.704Z,5.15
2022-10-03T11:58:10.956Z,5.57
2022-10-03T12:00:40.745Z,5.28
2022-10-03T12:03:27.159Z,7.80
2022-10-03T12:06:19.613Z,5.88
2022-10-03T12:09:14.151Z,5.60
2022-10-03T12:12:11.909Z,5.18
2022-10-03T12:14:46.757Z,5.85
2022-10-03T12:17:16.777Z,5.38
2022-10-03T12:19:58.007Z,6.13
2022-10-03T12:22:42.519Z,6.10
2022-10-03T12:25:23.976Z,5.85
2022-10-03T12:28:18.119Z,5.53
2022-10-03T12:31:01.754Z,5.65
2022-10-03T12:33:48.082Z,5.60
2022-10-03T12:36:16.905Z,5.65
2022-10-03T12:39:02.419Z,5.70
2022-10-03T12:42:02.947Z,5.45
2022-10-03T12:47:37.569Z,4.45
2022-10-03T12:50:33.646Z,3.90
2022-10-03T12:53:15.637Z,4.72
2022-10-03T12:56:14.390Z,4.53
2022-10-03T12:59:18.973Z,4.65
2022-10-03T13:01:59.393Z,4.43
2022-10-03T13:07:36.886Z,4.40
2022-10-03T13:10:34.494Z,4.85
2022-10-03T13:13:51.103Z,4.82
2022-10-03T13:16:32.635Z,4.95
2022-10-03T13:19:19.788Z,4.25
2022-10-03T13:22:29.056Z,4.57
2022-10-03T13:25:09.627Z,4.10
2022-10-03T13:27:54.705Z,3.95
2022-10-03T13:30:25.448Z,5.03
2022-10-03T13:33:03.016Z,4.03
2022-10-03T13:35:58.752Z,4.53
2022-10-03T13:39:01.093Z,4.10
2022-10-03T13:41:33.799Z,4.00
2022-10-03T13:44:10.011Z,4.40
2022-10-03T13:46:57.225Z,4.65
2022-10-03T13:49:32.537Z,3.95
2022-10-03T13:52:07.622Z,3.88
2022-10-03T13:54:50.056Z,3.70
2022-10-03T13:57:26.740Z,3.45
2022-10-03T14:00:19.804Z,3.70
2022-10-03T14:03:08.695Z,4.32
2022-10-03T14:05:57.288Z,3.90
2022-10-03T14:08:45.067Z,4.43
2022-10-03T14:11:26.895Z,3.50
2022-10-03T14:14:34.843Z,3.63
2022-10-03T14:17:13.450Z,3.38
2022-10-03T14:19:49.038Z,3.45
2022-10-03T14:22:23.947Z,3.72
2022-10-03T14:25:19.608Z,7.82
2022-10-03T14:28:24.383Z,8.82
2022-10-03T14:31:07.783Z,10.20
2022-10-03T14:33:58.809Z,11.60
2022-10-03T14:36:39.597Z,9.32
2022-10-03T14:39:36.310Z,9.70
2022-10-03T14:42:34.273Z,9.40
2022-10-03T14:45:16.636Z,8.88
2022-10-03T14:47:49.425Z,10.48
2022-10-03T14:50:20.459Z,12.57
2022-10-03T14:53:02.258Z,12.95
2022-10-03T14:55:34.400Z,13.30
2022-10-03T14:58:19.585Z,15.85
2022-10-03T15:00:49.578Z,10.05
2022-10-03T15:03:17.708Z,11.00
2022-10-03T15:05:56.369Z,9.85
2022-10-03T15:08:31.915Z,6.05
2022-10-03T15:10:59.682Z,6.35
2022-10-03T15:13:35.436Z,4.95
2022-10-03T15:16:02.770Z,5.43
2022-10-03T15:18:31.880Z,5.95
2022-10-03T15:21:00.814Z,5.15
2022-10-03T15:23:34.064Z,6.65
2022-10-03T15:26:15.211Z,5.32
2022-10-03T15:28:54.664Z,6.03
2022-10-03T15:31:46.969Z,6.18
2022-10-03T15:34:23.131Z,6.22
2022-10-03T15:36:54.317Z,5.45
2022-10-03T15:39:27.749Z,4.88
2022-10-03T15:42:15.145Z,7.28
2022-10-03T15:45:06.907Z,5.80
2022-10-03T15:47:39.925Z,6.75
2022-10-03T15:50:30.848Z,4.82
2022-10-03T15:53:24.163Z,5.43
2022-10-03T15:55:53.262Z,5.90
2022-10-03T15:58:28.792Z,6.38
2022-10-03T16:01:10.112Z,9.88
2022-10-03T16:03:51.771Z,11.27
2022-10-03T16:06:36.061Z,9.43
2022-10-03T16:09:15.641Z,5.53
2022-10-03T16:12:15.457Z,6.57
2022-10-03T16:14:47.424Z,7.20
2022-10-03T16:17:44.297Z,6.28
2022-10-03T16:20:41.736Z,7.40
2022-10-03T16:23:20.646Z,8.75
2022-10-03T16:25:56.892Z,6.70
2022-10-03T16:28:34.630Z,6.93
2022-10-03T16:31:13.538Z,7.22
2022-10-03T16:33:47.358Z,6.97
2022-10-03T16:36:19.346Z,6.68
2022-10-03T16:38:59.379Z,7.50
2022-10-03T16:41:30.173Z,6.90
2022-10-03T16:44:07.557Z,9.07
2022-10-03T16:46:44.294Z,7.82
2022-10-03T16:49:53.841Z,8.45
2022-10-03T16:52:34.749Z,8.68
2022-10-03T16:55:23.300Z,8.38
2022-10-03T16:58:10.678Z,8.40
2022-10-03T17:04:12.421Z,9.05
2022-10-03T17:06:47.447Z,9.90
2022-10-03T17:09:37.493Z,19.00
2022-10-03T17:12:08.385Z,13.75
2022-10-03T17:14:39.250Z,12.40
2022-10-03T17:17:23.107Z,10.32
2022-10-03T17:20:15.293Z,8.68
2022-10-03T17:22:57.285Z,11.00
2022-10-03T17:25:37.488Z,15.70
2022-10-03T17:28:08.626Z,18.98
2022-10-03T17:30:49.601Z,8.98
2022-10-03T17:33:35.763Z,8.55
2022-10-03T17:36:32.474Z,6.28
2022-10-03T17:39:23.983Z,5.35
2022-10-03T17:41:59.417Z,5.30
2022-10-03T17:44:54.951Z,7.35
2022-10-03T17:47:34.781Z,5.38
2022-10-03T17:50:24.717Z,5.38
2022-10-03T17:52:55.309Z,32.25
2022-10-03T17:55:43.935Z,6.45
2022-10-03T17:58:21.804Z,5.55
2022-10-03T18:01:02.454Z,6.05
2022-10-03T18:03:52.247Z,5.68
2022-10-03T18:06:51.993Z,6.07
2022-10-03T18:09:22.963Z,5.43
2022-10-03T18:11:51.686Z,6.03
2022-10-03T18:14:18.422Z,6.15
2022-10-03T18:17:16.469Z,5.20
2022-10-03T18:20:26.164Z,9.35
2022-10-03T18:23:08.891Z,7.87
2022-10-03T18:26:20.031Z,6.78
2022-10-03T18:29:05.382Z,7.32
2022-10-03T18:31:35.263Z,7.95
2022-10-03T18:34:17.347Z,8.85
2022-10-03T18:36:49.444Z,11.52
2022-10-03T18:39:33.638Z,10.93
2022-10-03T18:42:02.785Z,11.80
2022-10-03T18:44:32.610Z,10.82
2022-10-03T18:47:20.033Z,10.18
2022-10-03T18:50:20.569Z,10.77
2022-10-03T18:55:37.788Z,10.05
2022-10-03T18:58:25.340Z,10.88
2022-10-03T19:01:00.658Z,10.52
2022-10-03T19:03:38.616Z,10.10
2022-10-03T19:06:21.705Z,10.38
2022-10-03T19:09:06.764Z,9.45
2022-10-03T19:11:43.174Z,10.23
2022-10-03T19:14:33.124Z,9.20
2022-10-03T19:17:14.369Z,11.40
2022-10-03T19:19:59.022Z,9.82
2022-10-03T19:22:42.725Z,8.70
2022-10-03T19:25:28.208Z,9.27
2022-10-03T19:28:01.300Z,8.98
2022-10-03T19:30:32.959Z,9.45
2022-10-03T19:33:07.795Z,8.82
2022-10-03T19:35:58.834Z,9.02
2022-10-03T19:38:41.133Z,8.13
2022-10-03T19:41:17.327Z,8.07
2022-10-03T19:43:54.653Z,7.22
2022-10-03T19:46:29.348Z,8.20
2022-10-03T19:49:14.735Z,7.28
2022-10-03T19:51:42.902Z,7.28
2022-10-03T19:54:26.890Z,7.60
2022-10-03T19:56:55.061Z,7.50
2022-10-03T19:59:38.235Z,8.40
2022-10-03T20:02:07.050Z,8.48
2022-10-03T20:04:36.849Z,7.53
2022-10-03T20:07:47.126Z,8.10
2022-10-03T20:10:36.187Z,9.57
2022-10-03T20:13:04.372Z,8.38
2022-10-03T20:15:48.993Z,7.03
2022-10-03T20:18:24.444Z,7.65
2022-10-03T20:20:56.349Z,7.88
2022-10-03T20:23:34.032Z,7.35
2022-10-03T20:26:12.378Z,7.93
2022-10-03T20:29:07.332Z,7.57
2022-10-03T20:31:35.108Z,7.95
2022-10-03T20:34:05.687Z,7.53
2022-10-03T20:36:38.508Z,6.80
2022-10-03T20:39:26.353Z,7.68
2022-10-03T20:42:10.162Z,6.68
2022-10-03T20:44:55.662Z,7.50
2022-10-03T20:47:50.515Z,7.30
2022-10-03T20:50:40.899Z,7.47
2022-10-03T20:53:29.060Z,9.75
2022-10-03T20:56:14.756Z,7.90
2022-10-03T20:58:54.183Z,7.65
2022-10-03T21:01:26.656Z,6.78
2022-10-03T21:04:28.447Z,8.05
2022-10-03T21:07:40.181Z,7.68
2022-10-03T21:10:31.014Z,7.75
2022-10-03T21:13:06.841Z,7.32
2022-10-03T21:15:50.958Z,6.65
2022-10-03T21:18:29.621Z,6.15
2022-10-03T21:21:06.766Z,6.47
2022-10-03T21:23:42.288Z,6.50
2022-10-03T21:26:10.685Z,6.53
2022-10-03T21:28:38.628Z,5.80
2022-10-03T21:31:17.336Z,5.65
2022-10-03T21:33:56.965Z,5.32
2022-10-03T21:36:34.470Z,6.75
2022-10-03T21:39:15.560Z,5.35
2022-10-03T21:42:14.089Z,5.20
2022-10-03T21:44:57.152Z,5.78
2022-10-03T21:47:35.738Z,4.90
2022-10-03T21:50:09.334Z,5.43
2022-10-03T21:53:00.753Z,5.43
2022-10-03T21:55:52.521Z,4.85
2022-10-03T21:58:28.261Z,5.10
2022-10-03T22:01:03.463Z,5.35
2022-10-03T22:03:52.204Z,5.05
2022-10-03T22:06:25.552Z,4.85
2022-10-03T22:08:53.501Z,4.28
2022-10-03T22:11:58.602Z,4.93
2022-10-03T22:14:50.713Z,4.88
2022-10-03T22:17:39.894Z,5.07
2022-10-03T22:20:13.668Z,5.50
2022-10-03T22:22:46.121Z,5.05
2022-10-03T22:25:18.881Z,4.97
2022-10-03T22:28:14.323Z,5.13
2022-10-03T22:31:22.039Z,4.70
2022-10-03T22:34:11.381Z,5.72
2022-10-03T22:36:39.865Z,5.50
2022-10-03T22:39:15.809Z,5.40
2022-10-03T22:41:46.288Z,5.90
2022-10-03T22:46:46.916Z,6.30
2022-10-03T22:49:22.756Z,6.65
2022-10-03T22:51:54.900Z,6.00
2022-10-03T22:54:23.690Z,6.80
2022-10-03T22:56:56.146Z,7.65
2022-10-03T22:59:29.967Z,8.10
2022-10-03T23:01:58.986Z,6.80
2022-10-03T23:04:37.313Z,5.50
2022-10-03T23:07:15.323Z,4.65
2022-10-03T23:10:01.154Z,4.15
2022-10-03T23:12:40.762Z,4.70
2022-10-03T23:15:10.201Z,4.18
2022-10-03T23:17:58.124Z,4.60
2022-10-03T23:20:44.777Z,3.60
2022-10-03T23:23:30.839Z,4.25
2022-10-03T23:26:28.416Z,3.72
2022-10-03T23:29:10.827Z,4.05
2022-10-03T23:32:05.808Z,3.80
2022-10-03T23:34:35.373Z,4.03
2022-10-03T23:37:14.049Z,3.90
2022-10-03T23:39:53.460Z,4.00
2022-10-03T23:42:41.304Z,4.68
2022-10-03T23:45:09.986Z,5.00
2022-10-03T23:47:56.530Z,4.55
2022-10-03T23:50:45.293Z,5.03
2022-10-03T23:53:30.331Z,4.35
2022-10-03T23:56:00.430Z,5.32
2022-10-03T23:58:33.025Z,5.70
